METAR Data
IDs: Format: Raw Decoded Include TAF

Data at: 1101 UTC 18 Jan 2022

LFRS 181030Z AUTO 05006KT 020V080 9000 BKN010 OVC015 05/03 Q1035 NOSIG